Dai15hakuryomaru — JD2439 — position and weather

sailwx.info

Track history (hours):
 
Tides and Currents Weather Stations Pressure Air Temp Water Temp Dewpoint Dewpoint Depression Visibility Wind Speed Wind Dir Waves Ship Positions

Dai15hakuryomaru

Last reported at 2014-Oct-27 04:24 UTC. Time now 2014-Oct-30 13:42 UTC.
Position N 35°14' E 139°46'.

Length 80 m; draft 5.4 m.

Type: Tanker. MMSI: 431000243.

Date/timePositionNaut miles runAvg speedWind from/ knotsBaromVisibWave heightAir tempDewpointWater temp
2014-Oct-27 04:24N 35°14' E 139°46'1012.1
2014-Oct-27 03:33N 35°23' E 139°41'3 2.7
2014-Oct-27 02:34N 35°24' E 139°38'0 0.0
2014-Oct-27 01:33N 35°24' E 139°38'0 0.0
2014-Oct-27 00:34N 35°24' E 139°38'0 0.0
2014-Oct-26 23:34N 35°24' E 139°38'4 4.2
2014-Oct-26 22:33N 35°25' E 139°43'16 0.7
2014-Oct-25 23:16N 35°36' E 139°57'10 1.8
2014-Oct-25 17:33N 35°28' E 139°50'1311.7
2014-Oct-25 16:26N 35°15' E 139°47'  
Track history (hours):
 
Tides and Currents Weather Stations Pressure Air Temp Water Temp Dewpoint Dewpoint Depression Visibility Wind Speed Wind Dir Waves Ship Positions

Dai15hakuryomaru

Last reported at 2014-Oct-27 04:24 UTC. Time now 2014-Oct-30 13:42 UTC.
Position N 35°14' E 139°46'.

Length 80 m; draft 5.4 m.

Type: Tanker. MMSI: 431000243.

Date/timePositionNaut miles runAvg speedWind from/ knotsBaromVisibWave heightAir tempDewpointWater temp
2014-Oct-27 04:24N 35°14' E 139°46'1012.1
2014-Oct-27 03:33N 35°23' E 139°41'3 2.7
2014-Oct-27 02:34N 35°24' E 139°38'0 0.0
2014-Oct-27 01:33N 35°24' E 139°38'0 0.0
2014-Oct-27 00:34N 35°24' E 139°38'0 0.0
2014-Oct-26 23:34N 35°24' E 139°38'4 4.2
2014-Oct-26 22:33N 35°25' E 139°43'16 0.7
2014-Oct-25 23:16N 35°36' E 139°57'10 1.8
2014-Oct-25 17:33N 35°28' E 139°50'1311.7
2014-Oct-25 16:26N 35°15' E 139°47'  

Dump ship's entire track history